30 septembre 2022

Temps Code Temps Temp. Vue Base cloud Vent METAR/SPECI
18:00
V
18 °C 10 km+ - 280° 280° 7 kt METAR LFBC 301600Z AUTO 28007KT 230V330 CAVOK 18/09 Q1017 NOSIG
17:30
V
18 °C 10 km+ - 280° 280° 8 kt METAR LFBC 301530Z AUTO 28008KT 240V320 CAVOK 18/08 Q1016 NOSIG
17:00
V
18 °C 10 km+ - 290° 290° 8 kt METAR LFBC 301500Z AUTO 29008KT 260V330 CAVOK 18/08 Q1016 NOSIG
16:30
V
19 °C 10 km+ - 280° 280° 8 kt METAR LFBC 301430Z AUTO 28008KT 250V310 CAVOK 19/08 Q1016 NOSIG
16:00
V
19 °C 10 km+ - 290° 290° 7 kt METAR LFBC 301400Z AUTO 29007KT 240V330 CAVOK 19/08 Q1016 NOSIG
15:30
V
18 °C 10 km+ - 320° 320° 7 kt METAR LFBC 301330Z AUTO 32007KT 290V030 CAVOK 18/06 Q1016 NOSIG
15:00
V
19 °C 10 km+ - 320° 320° 6 kt METAR LFBC 301300Z AUTO 32006KT 250V360 CAVOK 19/07 Q1016 NOSIG
14:30
V
18 °C 10 km+ - 280° 280° 6 kt METAR LFBC 301230Z AUTO 28006KT 170V310 9999 FEW037 18/08 Q1016 NOSIG
14:00
V
18 °C 10 km+ - 330° 330° 6 kt METAR LFBC 301200Z AUTO 33006KT 230V020 9999 FEW033 18/09 Q1016 NOSIG
13:30
V
17 °C 10 km+ 3.300 ft 330° 330° 7 kt METAR LFBC 301130Z AUTO 33007KT 290V360 9999 BKN033 17/10 Q1016 NOSIG
13:00
V
17 °C 10 km+ 4.000 ft 310° 310° 6 kt METAR LFBC 301100Z AUTO 31006KT 280V340 9999 SCT032 BKN040 17/09 Q1016 NOSIG
12:30
V
17 °C 10 km+ - 010° 010° 7 kt METAR LFBC 301030Z AUTO 01007KT 330V050 9999 FEW030 17/09 Q1016 NOSIG
12:00
V
17 °C 10 km+ - 360° 360° 7 kt METAR LFBC 301000Z AUTO 36007KT 9999 FEW026 17/10 Q1015 NOSIG
11:30
V
16 °C 10 km+ - 020° 020° 8 kt METAR LFBC 300930Z AUTO 02008KT 340V050 9999 FEW021 16/11 Q1015 NOSIG
11:00
V
16 °C 10 km+ - Var Var 3 kt METAR LFBC 300900Z AUTO VRB03KT CAVOK 16/11 Q1015 NOSIG
10:30
V
14 °C 10 km+ - 020° 020° 3 kt METAR LFBC 300830Z AUTO 02003KT 350V060 CAVOK 14/11 Q1014 NOSIG
10:00
V
13 °C 10 km+ - 010° 010° 3 kt METAR LFBC 300800Z AUTO 01003KT 330V040 CAVOK 13/11 Q1014 NOSIG
09:30
V
11 °C 10 km+ - 020° 020° 3 kt METAR LFBC 300730Z AUTO 02003KT CAVOK 11/11 Q1014 NOSIG
09:00
V
10 °C 10 km+ - 360° 360° 3 kt METAR LFBC 300700Z AUTO 36003KT CAVOK 10/10 Q1013 NOSIG
08:30
V
9 °C 10 km+ - 010° 010° 3 kt METAR LFBC 300630Z AUTO 01003KT CAVOK 09/09 Q1012 NOSIG
08:00
V
9 °C 10 km+ - 020° 020° 4 kt METAR LFBC 300600Z AUTO 02004KT CAVOK 09/09 Q1012 TEMPO 3000 BR
07:30
V
9 °C 10 km+ - 360° 360° 4 kt METAR LFBC 300530Z AUTO 36004KT 9999 //////CB 09/09 Q1012 TEMPO 2000 BR BECMG BKN020 BKN050
07:00
V
8 °C 10 km+ - 300° 300° 2 kt METAR LFBC 300500Z AUTO 30002KT 9999 //////TCU 08/08 Q1011 TEMPO 2000 BR BECMG BKN020 BKN050
06:30
V
9 °C 10 km+ - Var Var 2 kt METAR LFBC 300430Z AUTO VRB02KT CAVOK 09/09 Q1011 TEMPO 2000 BR
06:00
V
9 °C 10 km+ - 320° 320° 2 kt METAR LFBC 300400Z AUTO 32002KT CAVOK 09/09 Q1010 TEMPO 2000 BR
05:30
V
9 °C 10 km+ - Var 000° 0 kt METAR LFBC 300330Z AUTO 00000KT CAVOK 09/09 Q1010 TEMPO 2000 BR
05:00
V
10 °C 10 km+ - 310° 310° 1 kt METAR LFBC 300300Z AUTO 31001KT CAVOK 10/09 Q1010 TEMPO 2000 BR
04:30
V
9 °C 10 km+ - Var Var 1 kt METAR LFBC 300230Z AUTO VRB01KT CAVOK 09/09 Q1009 TEMPO 2000 BR
04:00
L
10 °C 1 km - Var 000° 0 kt METAR LFBC 300200Z AUTO 00000KT 9000 1000 R24/P2000 //////CB 10/09 Q1009 BECMG SCT035 BKN070
03:30
V
10 °C 10 km+ 8.000 ft Var 000° 0 kt METAR LFBC 300130Z AUTO 00000KT 9999 FEW028/// OVC080/// //////TCU 10/10 Q1009 BECMG SCT035 BKN070
03:00
V
10 °C 10 km+ 7.800 ft 330° 330° 1 kt METAR LFBC 300100Z AUTO 33001KT 9999 FEW030 BKN078 10/09 Q1009 NOSIG
02:30
L
10 °C 1 km - 100° 100° 1 kt METAR LFBC 300030Z AUTO 10001KT 9999 1000 R24/1400U ///TCU 10/09 Q1009 BECMG SCT035 BKN070
02:00
V
10 °C 10 km+ 7.400 ft Var 000° 0 kt METAR LFBC 300000Z AUTO 00000KT 9999 FEW027/// BKN074/// BKN140/// //////CB 10/09 Q1009 TEMPO 33010KT 4000 SHRA BECMG SCT035 BKN070
01:30
V
12 °C 10 km+ - Var 000° 0 kt METAR LFBC 292330Z AUTO 00000KT 9999 FEW044/// ///CB 12/10 Q1009 TEMPO 33010KT 4000 SHRA BECMG SCT035 BKN070
01:00
V
13 °C 10 km+ 5.000 ft Var Var 3 kt METAR LFBC 292300Z AUTO VRB03KT 9999 SCT044/// BKN050/// BKN064/// ///CB 13/10 Q1009 TEMPO 4000 SHRA
00:30
V
13 °C 10 km+ 3.700 ft 280° 280° 5 kt METAR LFBC 292230Z AUTO 28005KT 250V330 9999 FEW028/// BKN037/// BKN045/// //////CB 13/11 Q1009 TEMPO 4000 SHRA
00:00
V
11 °C 10 km+ 4.500 ft Var 000° 0 kt METAR LFBC 292200Z AUTO 00000KT 9999 SCT030/// BKN045/// BKN058/// //////CB 11/10 Q1008 TEMPO 4000 SHRA BECMG 33010KT

29 septembre 2022

Temps Code Temps Temp. Vue Base cloud Vent METAR/SPECI
23:30
V
11 °C 10 km+ - 300° 300° 2 kt METAR LFBC 292130Z AUTO 30002KT 9999 //////CB 11/10 Q1008 TEMPO 4000 SHRA
23:00
V
12 °C 10 km+ 7.600 ft Var Var 1 kt METAR LFBC 292100Z AUTO VRB01KT 9999 FEW045/// SCT066/// BKN076/// ///CB 12/09 Q1008 TEMPO 4000 SHRA
22:30
V
12 °C 10 km+ 13.000 ft 320° 320° 3 kt METAR LFBC 292030Z AUTO 32003KT 9999 FEW039 SCT045 BKN130 12/09 Q1008 TEMPO 4000 SHRA BKN020CB BKN050
22:00
V
12 °C 10 km+ - 340° 340° 3 kt METAR LFBC 292000Z AUTO 34003KT CAVOK 12/09 Q1008 TEMPO 4000 SHRA BKN020CB BKN030
21:30
V
13 °C 10 km+ - 330° 330° 5 kt METAR LFBC 291930Z AUTO 33005KT 9999 FEW030 13/09 Q1007 TEMPO 4000 SHRA BKN020CB BKN030
21:00
V
13 °C 10 km+ - 340° 340° 5 kt METAR LFBC 291900Z AUTO 34005KT CAVOK 13/10 Q1007 TEMPO 4000 SHRA BKN020CB BKN030
20:30
V
13 °C 10 km+ - 330° 330° 5 kt METAR LFBC 291830Z AUTO 33005KT 9999 FEW030 13/10 Q1006 TEMPO 4000 SHRA BKN020CB BKN030
20:00
V
13 °C 10 km+ - 320° 320° 5 kt METAR LFBC 291800Z AUTO 32005KT CAVOK 13/10 Q1006 TEMPO 4000 SHRA BKN020CB BKN030
19:30
V
14 °C 10 km+ - 330° 330° 5 kt METAR LFBC 291730Z AUTO 33005KT CAVOK 14/10 Q1006 TEMPO 4000 SHRA BKN020CB BKN030
19:00
V
15 °C 10 km+ - 330° 330° 7 kt METAR LFBC 291700Z AUTO 33007KT 9999 ///TCU 15/10 Q1005 TEMPO 4000 SHRA BKN020CB BKN030
18:30
V
15 °C 10 km+ - 330° 330° 6 kt METAR LFBC 291630Z AUTO 33006KT 300V360 CAVOK 15/10 Q1005 TEMPO 4000 SHRA BKN020CB BKN030
18:00
V
16 °C 10 km+ - 340° 340° 7 kt METAR LFBC 291600Z AUTO 34007KT 310V010 9999 //////TCU 16/11 Q1005 TEMPO 4000 SHRA SCT025CB
17:30
V
16 °C 10 km+ - 330° 330° 6 kt METAR LFBC 291530Z AUTO 33006KT 9999 //////TCU 16/12 Q1004 TEMPO 4000 SHRA SCT025CB
17:00
V
15 °C 10 km+ 5.600 ft 310° 310° 5 kt METAR LFBC 291500Z AUTO 31005KT 9999 FEW023 SCT038 OVC056 15/13 Q1004 TEMPO 4000 SHRA SCT025CB
16:30
V
16 °C 10 km+ - 280° 280° 4 kt METAR LFBC 291430Z AUTO 28004KT 260V320 9999 //////TCU 16/14 Q1004 TEMPO 4000 SHRA SCT025CB
16:00
V
15 °C 10 km+ 7.000 ft Var Var 3 kt METAR LFBC 291400Z AUTO VRB03KT 9999 FEW026/// BKN070/// BKN120/// //////CB 15/13 Q1004 TEMPO 4000 SHRA
15:30
V
14 °C 10 km+ 6.800 ft 330° 330° 3 kt METAR LFBC 291330Z AUTO 33003KT 300V360 9999 -RA FEW030/// SCT054/// BKN068/// ///CB 14/12 Q1004 TEMPO 4000 SHRA
15:00
M
14 °C 7 km 7.000 ft 290° 290° 7 kt METAR LFBC 291300Z AUTO 29007KT 7000 RA FEW011/// BKN070/// OVC084/// //////CB 14/13 Q1004 TEMPO 4000 SHRA
14:30
M
14 °C 6 km 4.500 ft 250° 250° 7 kt METAR LFBC 291230Z AUTO 25007KT 190V280 6000 -RA FEW014/// SCT035/// BKN045/// ///CB 14/13 Q1004 TEMPO 4000 SHRA
14:00
M
14 °C 7 km 2.400 ft 260° 260° 8 kt METAR LFBC 291200Z AUTO 26008KT 7000 RA SCT019/// BKN024/// BKN035/// ///CB 14/13 Q1004 TEMPO 4000 SHRA
13:30
V
16 °C 10 km+ 11.000 ft 220° 220° 5 kt METAR LFBC 291130Z AUTO 22005KT 190V250 9999 FEW029/// SCT076/// BKN110/// //////CB 16/13 Q1004 TEMPO 4000 SHRA
13:00
V
16 °C 10 km+ - Var Var 1 kt METAR LFBC 291100Z AUTO VRB01KT 9999 ///CB 16/13 Q1004 TEMPO 4000 SHRA
12:30
V
15 °C 10 km+ 18.000 ft 060° 060° 3 kt METAR LFBC 291030Z AUTO 06003KT 020V080 9999 FEW008/// SCT160/// BKN180/// //////CB 15/13 Q1004 TEMPO 4000 SHRA
12:00
I
15 °C 1,9 km 4.300 ft 300° 300° 3 kt METAR LFBC 291000Z AUTO 30003KT 270V340 6000 1900 +RA SCT032/// BKN043/// BKN052/// //////CB 15/13 Q1004 TEMPO 4000 SHRA
11:30
V
16 °C 10 km+ 4.600 ft 240° 240° 6 kt METAR LFBC 290930Z AUTO 24006KT 200V280 9999 -RA SCT029/// BKN046/// BKN084/// //////CB 16/13 Q1004 TEMPO 4000 SHRA
11:00
V
16 °C 10 km+ 12.000 ft 220° 220° 3 kt METAR LFBC 290900Z AUTO 22003KT 180V250 9999 SCT017/// SCT041/// BKN120/// //////CB 16/14 Q1004 TEMPO 4000 SHRA
10:30
V
16 °C 10 km+ - Var Var 1 kt METAR LFBC 290830Z AUTO VRB01KT 9999 //////TCU 16/13 Q1003 TEMPO 4000 SHRA FEW010 BKN020CB
10:00
V
16 °C 10 km+ - Var Var 2 kt METAR LFBC 290800Z AUTO VRB02KT 9999 ///TCU 16/13 Q1004 TEMPO 4000 SHRA FEW010 BKN020CB
09:30
V
14 °C 10 km+ 10.000 ft Var 000° 0 kt METAR LFBC 290730Z AUTO 00000KT 9999 FEW026/// BKN100/// //////TCU 14/13 Q1003 TEMPO 4000 SHRA FEW010 BKN020CB
09:00
M
14 °C 10 km+ 2.400 ft 320° 320° 3 kt METAR LFBC 290700Z AUTO 32003KT 270V360 9999 SCT019/// BKN024/// BKN044/// //////TCU 14/13 Q1003 TEMPO 4000 SHRA FEW010 BKN020CB
08:30
V
14 °C 10 km+ 3.900 ft 240° 240° 3 kt METAR LFBC 290630Z AUTO 24003KT 210V270 9999 SCT029/// BKN039/// BKN046/// //////CB 14/13 Q1003 BECMG RA SCT020 SCT100
08:00
V
14 °C 10 km+ 3.400 ft 240° 240° 6 kt METAR LFBC 290600Z AUTO 24006KT 9999 SCT021/// BKN034/// BKN056/// //////CB 14/13 Q1003 TEMPO 2000 SHRA BECMG SCT020 SCT100
07:30
M
14 °C 10 km+ 2.600 ft 240° 240° 3 kt METAR LFBC 290530Z AUTO 24003KT 200V280 9999 -RA FEW013/// BKN026/// BKN043/// //////TCU 14/13 Q1004 TEMPO 29015KT 2000 SHRA BKN008 SCT015CB
07:00
V
14 °C 9 km 7.600 ft 250° 250° 5 kt METAR LFBC 290500Z AUTO 25005KT 220V280 9000 RA FEW038/// SCT056/// BKN076/// //////CB 14/13 Q1004 TEMPO 2000 SHRA BKN008 SCT015CB BECMG 29015KT
06:30
V
14 °C 10 km+ - 250° 250° 5 kt METAR LFBC 290430Z AUTO 25005KT 9999 //////CB 14/13 Q1004 TEMPO 2000 SHRA BKN008 SCT015CB BECMG 29015KT
06:00
V
14 °C 10 km+ - 240° 240° 5 kt METAR LFBC 290400Z AUTO 24005KT 9999 //////TCU 14/13 Q1004 TEMPO 2000 SHRA BKN008 SCT015CB BECMG 29015KT
05:30
V
14 °C 10 km+ 9.000 ft 240° 240° 4 kt METAR LFBC 290330Z AUTO 24004KT 9999 -RA FEW039/// SCT074/// OVC090/// //////CB 14/13 Q1004 TEMPO 2000 SHRA BKN008 SCT015CB BECMG 29015KT
05:00
V
14 °C 10 km+ - Var Var 2 kt METAR LFBC 290300Z AUTO VRB02KT 9999 RA ///CB 14/13 Q1004 TEMPO 2000 SHRA BKN008 SCT015CB BECMG 29015KT
04:30
V
14 °C 10 km+ 6.000 ft Var Var 2 kt METAR LFBC 290230Z AUTO VRB02KT 9999 FEW026/// BKN060/// OVC072/// //////TCU 14/13 Q1005 TEMPO 2000 SHRA BKN008 SCT015CB BECMG 29015KT
04:00
V
14 °C 9 km 5.800 ft Var Var 3 kt METAR LFBC 290200Z AUTO VRB03KT 9000 -RA FEW026/// BKN058/// BKN074/// //////CB 14/13 Q1005 TEMPO 2000 SHRA BKN008 SCT015CB BECMG 29015KT
03:30
V
14 °C 10 km+ - 230° 230° 3 kt METAR LFBC 290130Z AUTO 23003KT 9999 //////CB 14/14 Q1005 TEMPO 2000 SHRA BKN008 SCT015CB BECMG 29015KT
03:00
V
14 °C 10 km+ 4.100 ft Var Var 2 kt METAR LFBC 290100Z AUTO VRB02KT 9999 -RA FEW010 SCT018 BKN041 14/14 Q1005 TEMPO 2000 SHRA BKN008 SCT015CB BECMG 29015KT
02:30
I
14 °C 8 km 900 ft Var Var 3 kt METAR LFBC 290030Z AUTO VRB03KT 8000 -RA BKN009/// BKN026/// BKN052/// ///CB 14/14 Q1006 TEMPO 2000 SHRA BECMG 29015KT
02:00
I
14 °C 7 km 800 ft 330° 330° 5 kt METAR LFBC 290000Z AUTO 33005KT 300V360 7000 RA BKN008/// BKN022/// BKN031/// //////CB 14/14 Q1006 TEMPO 2000 SHRA BECMG 29015KT
01:30
V
15 °C 8 km 7.200 ft 250° 250° 8 kt METAR LFBC 282330Z AUTO 25008KT 230V290 8000 -RA SCT011/// SCT028/// BKN072/// ///CB 15/14 Q1006 TEMPO 2000 SHRA BKN008 SCT015CB
01:00
V
15 °C 10 km+ 4.600 ft 270° 270° 6 kt METAR LFBC 282300Z AUTO 27006KT 9999 -RA SCT037/// BKN046/// BKN052/// ///CB 15/13 Q1006 TEMPO 2000 SHRA BKN008 SCT015CB
00:30
V
16 °C 10 km+ 5.200 ft 270° 270° 5 kt METAR LFBC 282230Z AUTO 27005KT 240V340 9999 FEW024/// BKN052/// BKN078/// //////CB 16/13 Q1007 TEMPO 2000 SHRA BKN008 SCT015CB BECMG 29015KT
00:00
V
16 °C 10 km+ 12.000 ft 270° 270° 6 kt METAR LFBC 282200Z AUTO 27006KT 9999 FEW028/// SCT070/// BKN120/// ///CB 16/13 Q1007 TEMPO 2000 SHRA BKN008 SCT015CB

28 septembre 2022

Temps Code Temps Temp. Vue Base cloud Vent METAR/SPECI
23:30
V
16 °C 10 km+ 3.900 ft 280° 280° 6 kt METAR LFBC 282130Z AUTO 28006KT 9999 FEW024 SCT030 BKN039 16/13 Q1007 TEMPO 2000 SHRA BKN008 SCT015CB
23:00
M
16 °C 10 km+ 2.600 ft 290° 290° 9 kt METAR LFBC 282100Z AUTO 29009KT 250V320 9999 BKN026 BKN036 BKN045 16/13 Q1007 TEMPO 2000 SHRA BKN008 SCT015CB
22:30
M
16 °C 10 km+ 2.200 ft 300° 300° 8 kt METAR LFBC 282030Z AUTO 30008KT 270V350 9999 BKN022 BKN100 BKN140 16/13 Q1007 TEMPO 2000 SHRA BKN008 SCT015CB
22:00
V
16 °C 10 km+ 8.600 ft 310° 310° 9 kt METAR LFBC 282000Z AUTO 31009KT 280V340 9999 FEW018 OVC086 16/13 Q1007 TEMPO 2000 SHRA BKN008 SCT015CB
21:30
M
16 °C 10 km+ 1.600 ft 310° 310° 17 kt METAR LFBC 281930Z AUTO 31017KT 280V340 9999 BKN016 OVC022 16/14 Q1007 TEMPO 2000 SHRA BKN008 SCT015CB
21:00
M
17 °C 10 km+ 2.100 ft 280° 280° 13 kt METAR LFBC 281900Z AUTO 28013KT 240V320 9999 BKN021/// OVC070/// ///TCU 17/14 Q1007 BECMG 4000 RA SCT009 OVC020
20:30
V
15 °C 10 km+ 5.400 ft 290° 290° 13 - 24 kt METAR LFBC 281830Z AUTO 29013G24KT 260V320 9999 FEW014/// SCT031/// BKN054/// //////CB 15/14 Q1007 BECMG 29018KT 4000 RA SCT009 OVC020
20:00
M
17 °C 10 km+ 2.700 ft 270° 270° 12 kt METAR LFBC 281800Z AUTO 27012KT 240V310 9999 FEW014/// SCT020/// BKN027/// //////CB 17/14 Q1007 BECMG 4000 RA SCT009 OVC020
19:30
M
17 °C 10 km+ 2.400 ft 290° 290° 11 kt METAR LFBC 281730Z AUTO 29011KT 250V320 9999 BKN024/// BKN033/// BKN076/// //////CB 17/14 Q1007 BECMG 4000 RA SCT009 OVC020
19:00
V
17 °C 10 km+ 5.000 ft 280° 280° 12 - 26 kt METAR LFBC 281700Z AUTO 28012G26KT 260V320 9999 FEW019/// SCT040/// BKN050/// ///CB 17/14 Q1007 TEMPO 4000 SHRA BECMG 29018KT
18:30
V
17 °C 10 km+ 3.000 ft 280° 280° 10 kt METAR LFBC 281630Z AUTO 28010KT 9999 SCT020/// BKN030/// BKN044/// //////CB 17/15 Q1007 TEMPO 4000 SHRA
18:00
M
17 °C 10 km+ 2.000 ft 280° 280° 13 kt METAR LFBC 281600Z AUTO 28013KT 250V310 9999 SCT013/// BKN020/// BKN027/// //////CB 17/15 Q1007 TEMPO 4000 SHRA
17:30
M
16 °C 10 km+ 1.400 ft 290° 290° 10 kt METAR LFBC 281530Z AUTO 29010KT 9999 BKN014/// BKN036/// BKN049/// //////CB 16/15 Q1007 TEMPO 4000 SHRA SCT009 BKN018CB
17:00
V
17 °C 10 km+ 3.600 ft 280° 280° 12 kt METAR LFBC 281500Z AUTO 28012KT 250V310 9999 FEW008/// SCT029/// BKN036/// //////CB 17/15 Q1007 TEMPO 4000 SHRA
Données plus anciennes

Nous et des tiers suivons ton comportement sur Internet sur notre site Web à l'aide de cookies. Si tu continues, nous supposons que tu acceptes notre politique en matière de cookies. Apprendre plus